sensor_id;sensor_type;location;lat;lon;timestamp;temperature;humidity
2647;DHT22;1333;50.958;6.770;2023-04-03T00:01:07;3.90;99.90
2647;DHT22;1333;50.958;6.770;2023-04-03T00:03:33;3.80;99.90
2647;DHT22;1333;50.958;6.770;2023-04-03T00:05:58;3.80;99.90
2647;DHT22;1333;50.958;6.770;2023-04-03T00:08:24;3.70;99.90
2647;DHT22;1333;50.958;6.770;2023-04-03T00:10:50;3.60;99.90
2647;DHT22;1333;50.958;6.770;2023-04-03T00:13:16;3.50;99.90
2647;DHT22;1333;50.958;6.770;2023-04-03T00:15:41;3.40;99.90
2647;DHT22;1333;50.958;6.770;2023-04-03T00:18:08;3.30;99.90
2647;DHT22;1333;50.958;6.770;2023-04-03T00:20:34;3.20;99.90
2647;DHT22;1333;50.958;6.770;2023-04-03T00:23:00;3.10;99.90
2647;DHT22;1333;50.958;6.770;2023-04-03T00:25:26;3.00;99.90
2647;DHT22;1333;50.958;6.770;2023-04-03T00:27:52;2.90;99.90
2647;DHT22;1333;50.958;6.770;2023-04-03T00:30:20;2.80;99.90
2647;DHT22;1333;50.958;6.770;2023-04-03T00:32:51;2.70;99.90
2647;DHT22;1333;50.958;6.770;2023-04-03T00:35:18;2.60;99.90
2647;DHT22;1333;50.958;6.770;2023-04-03T00:37:44;2.60;99.90
2647;DHT22;1333;50.958;6.770;2023-04-03T00:40:11;2.50;99.90
2647;DHT22;1333;50.958;6.770;2023-04-03T00:42:38;2.50;99.90
2647;DHT22;1333;50.958;6.770;2023-04-03T00:47:30;2.30;99.90
2647;DHT22;1333;50.958;6.770;2023-04-03T00:49:57;2.20;99.90
2647;DHT22;1333;50.958;6.770;2023-04-03T00:52:26;2.20;99.90
2647;DHT22;1333;50.958;6.770;2023-04-03T00:54:55;2.10;99.90
2647;DHT22;1333;50.958;6.770;2023-04-03T00:57:22;2.10;99.90
2647;DHT22;1333;50.958;6.770;2023-04-03T00:59:56;2.10;99.90
2647;DHT22;1333;50.958;6.770;2023-04-03T01:02:23;2.00;99.90
2647;DHT22;1333;50.958;6.770;2023-04-03T01:04:48;1.90;99.90
2647;DHT22;1333;50.958;6.770;2023-04-03T01:07:27;1.90;99.90
2647;DHT22;1333;50.958;6.770;2023-04-03T01:09:58;1.80;99.90
2647;DHT22;1333;50.958;6.770;2023-04-03T01:12:30;1.80;99.90
2647;DHT22;1333;50.958;6.770;2023-04-03T01:14:58;1.70;99.90
2647;DHT22;1333;50.958;6.770;2023-04-03T01:17:31;1.60;99.90
2647;DHT22;1333;50.958;6.770;2023-04-03T01:25:40;1.60;99.90
2647;DHT22;1333;50.958;6.770;2023-04-03T01:28:09;1.50;99.90
2647;DHT22;1333;50.958;6.770;2023-04-03T01:33:25;1.40;99.90
2647;DHT22;1333;50.958;6.770;2023-04-03T01:35:50;1.40;99.90
2647;DHT22;1333;50.958;6.770;2023-04-03T01:38:16;1.40;99.90
2647;DHT22;1333;50.958;6.770;2023-04-03T01:40:42;1.30;99.90
2647;DHT22;1333;50.958;6.770;2023-04-03T01:43:07;1.30;99.90
2647;DHT22;1333;50.958;6.770;2023-04-03T01:45:33;1.30;99.90
2647;DHT22;1333;50.958;6.770;2023-04-03T01:47:58;1.20;99.90
2647;DHT22;1333;50.958;6.770;2023-04-03T01:50:24;1.20;99.90
2647;DHT22;1333;50.958;6.770;2023-04-03T01:52:50;1.20;99.90
2647;DHT22;1333;50.958;6.770;2023-04-03T01:55:15;1.10;99.90
2647;DHT22;1333;50.958;6.770;2023-04-03T01:57:41;1.10;99.90
2647;DHT22;1333;50.958;6.770;2023-04-03T02:00:07;1.10;99.90
2647;DHT22;1333;50.958;6.770;2023-04-03T02:02:33;1.10;99.90
2647;DHT22;1333;50.958;6.770;2023-04-03T02:04:59;1.10;99.90
2647;DHT22;1333;50.958;6.770;2023-04-03T02:07:24;1.10;99.90
2647;DHT22;1333;50.958;6.770;2023-04-03T02:09:50;1.10;99.90
2647;DHT22;1333;50.958;6.770;2023-04-03T02:12:15;1.10;99.90
2647;DHT22;1333;50.958;6.770;2023-04-03T02:14:41;1.10;99.90
2647;DHT22;1333;50.958;6.770;2023-04-03T02:17:06;1.10;99.90
2647;DHT22;1333;50.958;6.770;2023-04-03T02:19:34;1.10;99.90
2647;DHT22;1333;50.958;6.770;2023-04-03T02:22:01;1.10;99.90
2647;DHT22;1333;50.958;6.770;2023-04-03T02:24:27;1.10;99.90
2647;DHT22;1333;50.958;6.770;2023-04-03T02:26:53;1.10;99.90
2647;DHT22;1333;50.958;6.770;2023-04-03T02:29:18;1.10;99.90
2647;DHT22;1333;50.958;6.770;2023-04-03T02:31:44;1.10;99.90
2647;DHT22;1333;50.958;6.770;2023-04-03T02:34:09;1.10;99.90
2647;DHT22;1333;50.958;6.770;2023-04-03T02:36:35;1.10;99.90
2647;DHT22;1333;50.958;6.770;2023-04-03T02:39:01;1.10;99.90
2647;DHT22;1333;50.958;6.770;2023-04-03T02:41:26;1.10;99.90
2647;DHT22;1333;50.958;6.770;2023-04-03T02:43:58;1.10;99.90
2647;DHT22;1333;50.958;6.770;2023-04-03T02:46:24;1.10;99.90
2647;DHT22;1333;50.958;6.770;2023-04-03T02:48:50;1.00;99.90
2647;DHT22;1333;50.958;6.770;2023-04-03T02:51:15;1.00;99.90
2647;DHT22;1333;50.958;6.770;2023-04-03T02:53:41;1.00;99.90
2647;DHT22;1333;50.958;6.770;2023-04-03T02:56:06;0.90;99.90
2647;DHT22;1333;50.958;6.770;2023-04-03T02:58:32;0.90;99.90
2647;DHT22;1333;50.958;6.770;2023-04-03T03:00:57;0.90;99.90
2647;DHT22;1333;50.958;6.770;2023-04-03T03:03:23;0.90;99.90
2647;DHT22;1333;50.958;6.770;2023-04-03T03:05:48;0.90;99.90
2647;DHT22;1333;50.958;6.770;2023-04-03T03:08:14;0.90;99.90
2647;DHT22;1333;50.958;6.770;2023-04-03T03:10:40;0.80;99.90
2647;DHT22;1333;50.958;6.770;2023-04-03T03:13:05;0.80;99.90
2647;DHT22;1333;50.958;6.770;2023-04-03T03:15:31;0.80;99.90
2647;DHT22;1333;50.958;6.770;2023-04-03T03:17:56;0.80;99.90
2647;DHT22;1333;50.958;6.770;2023-04-03T03:20:22;0.80;99.90
2647;DHT22;1333;50.958;6.770;2023-04-03T03:22:47;0.70;99.90
2647;DHT22;1333;50.958;6.770;2023-04-03T03:25:13;0.70;99.90
2647;DHT22;1333;50.958;6.770;2023-04-03T03:27:38;0.70;99.90
2647;DHT22;1333;50.958;6.770;2023-04-03T03:30:04;0.70;99.90
2647;DHT22;1333;50.958;6.770;2023-04-03T03:32:30;0.70;99.90
2647;DHT22;1333;50.958;6.770;2023-04-03T03:34:56;0.70;99.90
2647;DHT22;1333;50.958;6.770;2023-04-03T03:37:21;0.70;99.90
2647;DHT22;1333;50.958;6.770;2023-04-03T03:39:47;0.60;99.90
2647;DHT22;1333;50.958;6.770;2023-04-03T03:42:12;0.60;99.90
2647;DHT22;1333;50.958;6.770;2023-04-03T03:44:38;0.60;99.90
2647;DHT22;1333;50.958;6.770;2023-04-03T03:47:03;0.60;99.90
2647;DHT22;1333;50.958;6.770;2023-04-03T03:49:31;0.50;99.90
2647;DHT22;1333;50.958;6.770;2023-04-03T03:51:56;0.50;99.90
2647;DHT22;1333;50.958;6.770;2023-04-03T03:54:22;0.50;99.90
2647;DHT22;1333;50.958;6.770;2023-04-03T03:56:47;0.50;99.90
2647;DHT22;1333;50.958;6.770;2023-04-03T03:59:13;0.50;99.90
2647;DHT22;1333;50.958;6.770;2023-04-03T04:01:38;0.50;99.90
2647;DHT22;1333;50.958;6.770;2023-04-03T04:04:05;0.50;99.90
2647;DHT22;1333;50.958;6.770;2023-04-03T04:06:30;0.40;99.90
2647;DHT22;1333;50.958;6.770;2023-04-03T04:08:56;0.40;99.90
2647;DHT22;1333;50.958;6.770;2023-04-03T04:11:21;0.40;99.90
2647;DHT22;1333;50.958;6.770;2023-04-03T04:13:47;0.40;99.90
2647;DHT22;1333;50.958;6.770;2023-04-03T04:16:13;0.40;99.90
2647;DHT22;1333;50.958;6.770;2023-04-03T04:18:38;0.40;99.90
2647;DHT22;1333;50.958;6.770;2023-04-03T04:21:04;0.40;99.90
2647;DHT22;1333;50.958;6.770;2023-04-03T04:23:29;0.40;99.90
2647;DHT22;1333;50.958;6.770;2023-04-03T04:25:55;0.40;99.90
2647;DHT22;1333;50.958;6.770;2023-04-03T04:28:20;0.30;99.90
2647;DHT22;1333;50.958;6.770;2023-04-03T04:30:46;0.30;99.90
2647;DHT22;1333;50.958;6.770;2023-04-03T04:33:11;0.30;99.90
2647;DHT22;1333;50.958;6.770;2023-04-03T04:35:39;0.30;99.90
2647;DHT22;1333;50.958;6.770;2023-04-03T04:38:04;0.30;99.90
2647;DHT22;1333;50.958;6.770;2023-04-03T04:40:30;0.30;99.90
2647;DHT22;1333;50.958;6.770;2023-04-03T04:42:56;0.30;99.90
2647;DHT22;1333;50.958;6.770;2023-04-03T04:45:22;0.30;99.90
2647;DHT22;1333;50.958;6.770;2023-04-03T04:47:47;0.20;99.90
2647;DHT22;1333;50.958;6.770;2023-04-03T04:50:13;0.20;99.90
2647;DHT22;1333;50.958;6.770;2023-04-03T04:52:39;0.20;99.90
2647;DHT22;1333;50.958;6.770;2023-04-03T04:55:05;0.20;99.90
2647;DHT22;1333;50.958;6.770;2023-04-03T04:57:30;0.30;99.90
2647;DHT22;1333;50.958;6.770;2023-04-03T04:59:56;0.30;99.90
2647;DHT22;1333;50.958;6.770;2023-04-03T05:02:21;0.30;99.90
2647;DHT22;1333;50.958;6.770;2023-04-03T05:04:47;0.30;99.90
2647;DHT22;1333;50.958;6.770;2023-04-03T05:07:15;0.30;99.90
2647;DHT22;1333;50.958;6.770;2023-04-03T05:09:41;0.30;99.90
2647;DHT22;1333;50.958;6.770;2023-04-03T05:12:07;0.30;99.90
2647;DHT22;1333;50.958;6.770;2023-04-03T05:14:33;0.30;99.90
2647;DHT22;1333;50.958;6.770;2023-04-03T05:16:58;0.40;99.90
2647;DHT22;1333;50.958;6.770;2023-04-03T05:19:24;0.40;99.90
2647;DHT22;1333;50.958;6.770;2023-04-03T05:21:49;0.40;99.90
2647;DHT22;1333;50.958;6.770;2023-04-03T05:24:15;0.40;99.90
2647;DHT22;1333;50.958;6.770;2023-04-03T05:26:42;0.50;99.90
2647;DHT22;1333;50.958;6.770;2023-04-03T05:29:07;0.50;99.90
2647;DHT22;1333;50.958;6.770;2023-04-03T05:31:33;0.60;99.90
2647;DHT22;1333;50.958;6.770;2023-04-03T05:33:59;0.70;99.90
2647;DHT22;1333;50.958;6.770;2023-04-03T05:36:24;0.90;99.90
2647;DHT22;1333;50.958;6.770;2023-04-03T05:38:51;1.20;99.90
2647;DHT22;1333;50.958;6.770;2023-04-03T05:41:16;1.50;99.90
2647;DHT22;1333;50.958;6.770;2023-04-03T05:43:42;1.90;99.90
2647;DHT22;1333;50.958;6.770;2023-04-03T05:46:15;2.50;99.90
2647;DHT22;1333;50.958;6.770;2023-04-03T05:48:42;3.10;99.90
2647;DHT22;1333;50.958;6.770;2023-04-03T05:51:14;3.60;99.90
2647;DHT22;1333;50.958;6.770;2023-04-03T05:53:41;4.00;99.90
2647;DHT22;1333;50.958;6.770;2023-04-03T05:56:08;4.50;99.90
2647;DHT22;1333;50.958;6.770;2023-04-03T05:58:33;5.00;99.90
2647;DHT22;1333;50.958;6.770;2023-04-03T06:00:59;5.40;99.90
2647;DHT22;1333;50.958;6.770;2023-04-03T06:03:25;6.00;99.90
2647;DHT22;1333;50.958;6.770;2023-04-03T06:05:50;6.70;99.90
2647;DHT22;1333;50.958;6.770;2023-04-03T06:08:16;7.40;99.90
2647;DHT22;1333;50.958;6.770;2023-04-03T06:10:41;8.10;99.90
2647;DHT22;1333;50.958;6.770;2023-04-03T06:13:07;8.80;99.90
2647;DHT22;1333;50.958;6.770;2023-04-03T06:15:33;9.50;99.90
2647;DHT22;1333;50.958;6.770;2023-04-03T06:17:59;10.20;99.90
2647;DHT22;1333;50.958;6.770;2023-04-03T06:20:25;11.00;99.90
2647;DHT22;1333;50.958;6.770;2023-04-03T06:22:51;11.90;99.90
2647;DHT22;1333;50.958;6.770;2023-04-03T06:25:16;12.90;99.90
2647;DHT22;1333;50.958;6.770;2023-04-03T06:27:44;13.70;99.60
2647;DHT22;1333;50.958;6.770;2023-04-03T06:30:10;14.60;88.10
2647;DHT22;1333;50.958;6.770;2023-04-03T06:32:36;15.30;82.20
2647;DHT22;1333;50.958;6.770;2023-04-03T06:35:02;15.90;72.80
2647;DHT22;1333;50.958;6.770;2023-04-03T06:37:27;16.60;67.90
2647;DHT22;1333;50.958;6.770;2023-04-03T06:39:54;17.40;64.10
2647;DHT22;1333;50.958;6.770;2023-04-03T06:42:20;18.10;57.90
2647;DHT22;1333;50.958;6.770;2023-04-03T06:44:46;18.80;54.50
2647;DHT22;1333;50.958;6.770;2023-04-03T06:47:14;19.30;53.30
2647;DHT22;1333;50.958;6.770;2023-04-03T06:49:40;20.10;51.80
2647;DHT22;1333;50.958;6.770;2023-04-03T06:52:05;20.90;50.40
2647;DHT22;1333;50.958;6.770;2023-04-03T06:54:31;21.60;48.20
2647;DHT22;1333;50.958;6.770;2023-04-03T06:56:57;22.30;47.10
2647;DHT22;1333;50.958;6.770;2023-04-03T06:59:23;22.90;45.00
2647;DHT22;1333;50.958;6.770;2023-04-03T07:01:49;23.30;43.50
2647;DHT22;1333;50.958;6.770;2023-04-03T07:04:15;23.80;42.10
2647;DHT22;1333;50.958;6.770;2023-04-03T07:06:41;24.10;40.50
2647;DHT22;1333;50.958;6.770;2023-04-03T07:09:08;24.50;39.90
2647;DHT22;1333;50.958;6.770;2023-04-03T07:11:34;24.80;38.60
2647;DHT22;1333;50.958;6.770;2023-04-03T07:14:01;24.90;37.10
2647;DHT22;1333;50.958;6.770;2023-04-03T07:16:27;24.80;37.70
2647;DHT22;1333;50.958;6.770;2023-04-03T07:18:52;24.70;36.90
2647;DHT22;1333;50.958;6.770;2023-04-03T07:21:18;24.80;36.50
2647;DHT22;1333;50.958;6.770;2023-04-03T07:23:43;24.70;35.50
2647;DHT22;1333;50.958;6.770;2023-04-03T07:26:09;24.40;34.30
2647;DHT22;1333;50.958;6.770;2023-04-03T07:28:35;24.10;34.10
2647;DHT22;1333;50.958;6.770;2023-04-03T07:31:06;24.10;34.60
2647;DHT22;1333;50.958;6.770;2023-04-03T07:33:34;24.60;34.70
2647;DHT22;1333;50.958;6.770;2023-04-03T07:36:00;25.70;35.20
2647;DHT22;1333;50.958;6.770;2023-04-03T07:38:26;26.60;33.90
2647;DHT22;1333;50.958;6.770;2023-04-03T07:40:52;27.20;33.50
2647;DHT22;1333;50.958;6.770;2023-04-03T07:43:19;27.70;31.70
2647;DHT22;1333;50.958;6.770;2023-04-03T07:45:46;27.50;29.90
2647;DHT22;1333;50.958;6.770;2023-04-03T07:48:15;27.80;30.00
2647;DHT22;1333;50.958;6.770;2023-04-03T07:50:41;27.70;28.80
2647;DHT22;1333;50.958;6.770;2023-04-03T07:53:06;27.50;28.80
2647;DHT22;1333;50.958;6.770;2023-04-03T07:55:33;27.20;28.70
2647;DHT22;1333;50.958;6.770;2023-04-03T07:57:59;26.90;28.20
2647;DHT22;1333;50.958;6.770;2023-04-03T08:00:24;26.80;28.60
2647;DHT22;1333;50.958;6.770;2023-04-03T08:02:50;26.40;28.60
2647;DHT22;1333;50.958;6.770;2023-04-03T08:05:20;26.30;28.90
2647;DHT22;1333;50.958;6.770;2023-04-03T08:07:47;26.50;29.00
2647;DHT22;1333;50.958;6.770;2023-04-03T08:10:13;27.00;29.20
2647;DHT22;1333;50.958;6.770;2023-04-03T08:12:39;27.90;28.80
2647;DHT22;1333;50.958;6.770;2023-04-03T08:15:05;28.70;28.50
2647;DHT22;1333;50.958;6.770;2023-04-03T08:17:31;29.40;28.20
2647;DHT22;1333;50.958;6.770;2023-04-03T08:19:57;30.00;27.90
2647;DHT22;1333;50.958;6.770;2023-04-03T08:22:22;30.30;26.90
2647;DHT22;1333;50.958;6.770;2023-04-03T08:24:48;30.50;26.40
2647;DHT22;1333;50.958;6.770;2023-04-03T08:27:13;30.50;25.50
2647;DHT22;1333;50.958;6.770;2023-04-03T08:29:39;30.60;25.80
2647;DHT22;1333;50.958;6.770;2023-04-03T08:32:05;30.50;25.20
2647;DHT22;1333;50.958;6.770;2023-04-03T08:34:31;30.30;25.10
2647;DHT22;1333;50.958;6.770;2023-04-03T08:37:00;30.60;24.90
2647;DHT22;1333;50.958;6.770;2023-04-03T08:39:26;30.50;25.00
2647;DHT22;1333;50.958;6.770;2023-04-03T08:41:52;31.00;25.60
2647;DHT22;1333;50.958;6.770;2023-04-03T08:44:46;31.60;24.90
2647;DHT22;1333;50.958;6.770;2023-04-03T08:50:05;32.30;24.20
2647;DHT22;1333;50.958;6.770;2023-04-03T08:52:53;33.30;24.50
2647;DHT22;1333;50.958;6.770;2023-04-03T08:55:29;33.30;23.30
2647;DHT22;1333;50.958;6.770;2023-04-03T08:58:16;33.40;23.00
2647;DHT22;1333;50.958;6.770;2023-04-03T09:01:03;33.90;23.10
2647;DHT22;1333;50.958;6.770;2023-04-03T09:03:35;34.30;23.60
2647;DHT22;1333;50.958;6.770;2023-04-03T09:06:10;34.30;22.60
2647;DHT22;1333;50.958;6.770;2023-04-03T09:09:13;34.20;22.60
2647;DHT22;1333;50.958;6.770;2023-04-03T09:14:19;33.30;23.10
2647;DHT22;1333;50.958;6.770;2023-04-03T09:24:45;35.40;21.90
2647;DHT22;1333;50.958;6.770;2023-04-03T09:27:12;35.80;22.10
2647;DHT22;1333;50.958;6.770;2023-04-03T09:29:43;36.10;20.80
2647;DHT22;1333;50.958;6.770;2023-04-03T09:32:33;35.40;20.50
2647;DHT22;1333;50.958;6.770;2023-04-03T09:35:03;35.30;21.60
2647;DHT22;1333;50.958;6.770;2023-04-03T09:40:03;35.80;20.90
2647;DHT22;1333;50.958;6.770;2023-04-03T09:42:30;34.50;20.10
2647;DHT22;1333;50.958;6.770;2023-04-03T09:45:18;34.50;21.00
2647;DHT22;1333;50.958;6.770;2023-04-03T09:47:47;34.60;21.30
2647;DHT22;1333;50.958;6.770;2023-04-03T09:52:44;34.60;20.50
2647;DHT22;1333;50.958;6.770;2023-04-03T09:55:19;35.30;21.80
2647;DHT22;1333;50.958;6.770;2023-04-03T09:57:47;35.20;20.30
2647;DHT22;1333;50.958;6.770;2023-04-03T10:00:24;35.30;21.10
2647;DHT22;1333;50.958;6.770;2023-04-03T10:02:54;35.20;20.70
2647;DHT22;1333;50.958;6.770;2023-04-03T10:05:36;35.50;20.70
2647;DHT22;1333;50.958;6.770;2023-04-03T10:10:45;36.30;21.00
2647;DHT22;1333;50.958;6.770;2023-04-03T10:15:46;38.20;20.60
2647;DHT22;1333;50.958;6.770;2023-04-03T10:18:39;38.80;20.50
2647;DHT22;1333;50.958;6.770;2023-04-03T10:21:39;38.80;18.90
2647;DHT22;1333;50.958;6.770;2023-04-03T10:27:04;39.00;19.60
2647;DHT22;1333;50.958;6.770;2023-04-03T10:29:36;39.40;18.70
2647;DHT22;1333;50.958;6.770;2023-04-03T10:34:43;38.20;17.50
2647;DHT22;1333;50.958;6.770;2023-04-03T10:37:29;37.20;17.20
2647;DHT22;1333;50.958;6.770;2023-04-03T10:40:12;37.10;17.70
2647;DHT22;1333;50.958;6.770;2023-04-03T10:42:49;36.00;17.50
2647;DHT22;1333;50.958;6.770;2023-04-03T10:48:19;34.80;18.10
2647;DHT22;1333;50.958;6.770;2023-04-03T10:54:11;34.70;17.90
2647;DHT22;1333;50.958;6.770;2023-04-03T10:59:15;34.80;18.00
2647;DHT22;1333;50.958;6.770;2023-04-03T11:01:46;35.30;18.00
2647;DHT22;1333;50.958;6.770;2023-04-03T11:04:14;35.90;18.10
2647;DHT22;1333;50.958;6.770;2023-04-03T11:07:18;36.70;18.70
2647;DHT22;1333;50.958;6.770;2023-04-03T11:09:41;37.70;18.80
2647;DHT22;1333;50.958;6.770;2023-04-03T11:12:23;37.40;17.50
2647;DHT22;1333;50.958;6.770;2023-04-03T11:14:51;37.90;18.50
2647;DHT22;1333;50.958;6.770;2023-04-03T11:22:42;38.60;17.00
2647;DHT22;1333;50.958;6.770;2023-04-03T11:27:44;38.60;16.80
2647;DHT22;1333;50.958;6.770;2023-04-03T11:30:33;37.80;16.60
2647;DHT22;1333;50.958;6.770;2023-04-03T11:36:29;38.40;17.20
2647;DHT22;1333;50.958;6.770;2023-04-03T11:38:59;39.70;18.10
2647;DHT22;1333;50.958;6.770;2023-04-03T11:41:28;41.10;17.80
2647;DHT22;1333;50.958;6.770;2023-04-03T11:46:51;41.30;17.70
2647;DHT22;1333;50.958;6.770;2023-04-03T12:05:51;45.00;15.80
2647;DHT22;1333;50.958;6.770;2023-04-03T12:21:16;43.50;15.60
2647;DHT22;1333;50.958;6.770;2023-04-03T12:29:25;42.80;16.30
2647;DHT22;1333;50.958;6.770;2023-04-03T12:32:25;42.80;15.90
2647;DHT22;1333;50.958;6.770;2023-04-03T12:35:17;42.90;16.10
2647;DHT22;1333;50.958;6.770;2023-04-03T12:43:35;43.90;16.00
2647;DHT22;1333;50.958;6.770;2023-04-03T12:46:14;44.20;16.00
2647;DHT22;1333;50.958;6.770;2023-04-03T12:48:55;44.20;15.60
2647;DHT22;1333;50.958;6.770;2023-04-03T12:54:03;44.60;15.70
2647;DHT22;1333;50.958;6.770;2023-04-03T12:56:31;43.70;14.80
2647;DHT22;1333;50.958;6.770;2023-04-03T12:59:26;42.70;14.90
2647;DHT22;1333;50.958;6.770;2023-04-03T13:01:57;42.30;15.30
2647;DHT22;1333;50.958;6.770;2023-04-03T13:04:23;42.50;15.50
2647;DHT22;1333;50.958;6.770;2023-04-03T13:06:50;42.50;14.60
2647;DHT22;1333;50.958;6.770;2023-04-03T13:09:27;43.10;15.30
2647;DHT22;1333;50.958;6.770;2023-04-03T13:12:02;43.10;15.30
2647;DHT22;1333;50.958;6.770;2023-04-03T13:14:29;42.80;15.00
2647;DHT22;1333;50.958;6.770;2023-04-03T13:17:03;42.90;15.60
2647;DHT22;1333;50.958;6.770;2023-04-03T13:19:30;43.00;15.60
2647;DHT22;1333;50.958;6.770;2023-04-03T13:22:02;43.40;16.00
2647;DHT22;1333;50.958;6.770;2023-04-03T13:24:30;43.40;15.00
2647;DHT22;1333;50.958;6.770;2023-04-03T13:26:57;43.10;14.90
2647;DHT22;1333;50.958;6.770;2023-04-03T13:29:32;43.00;15.30
2647;DHT22;1333;50.958;6.770;2023-04-03T13:31:59;42.10;14.30
2647;DHT22;1333;50.958;6.770;2023-04-03T13:34:28;40.60;14.50
2647;DHT22;1333;50.958;6.770;2023-04-03T13:36:59;39.90;15.20
2647;DHT22;1333;50.958;6.770;2023-04-03T13:39:31;39.70;15.40
2647;DHT22;1333;50.958;6.770;2023-04-03T13:42:00;39.80;15.70
2647;DHT22;1333;50.958;6.770;2023-04-03T13:44:45;39.60;15.50
2647;DHT22;1333;50.958;6.770;2023-04-03T13:49:42;39.00;15.30
2647;DHT22;1333;50.958;6.770;2023-04-03T13:52:42;39.00;16.10
2647;DHT22;1333;50.958;6.770;2023-04-03T13:55:27;39.40;16.80
2647;DHT22;1333;50.958;6.770;2023-04-03T13:58:01;39.40;15.90
2647;DHT22;1333;50.958;6.770;2023-04-03T14:05:43;36.80;16.10
2647;DHT22;1333;50.958;6.770;2023-04-03T14:08:10;36.00;16.10
2647;DHT22;1333;50.958;6.770;2023-04-03T14:10:36;35.80;16.70
2647;DHT22;1333;50.958;6.770;2023-04-03T14:13:02;35.30;16.50
2647;DHT22;1333;50.958;6.770;2023-04-03T14:15:30;35.10;17.00
2647;DHT22;1333;50.958;6.770;2023-04-03T14:17:57;34.20;16.90
2647;DHT22;1333;50.958;6.770;2023-04-03T14:20:26;33.80;17.60
2647;DHT22;1333;50.958;6.770;2023-04-03T14:22:52;33.40;17.60
2647;DHT22;1333;50.958;6.770;2023-04-03T14:25:20;33.20;17.60
2647;DHT22;1333;50.958;6.770;2023-04-03T14:27:49;32.90;17.60
2647;DHT22;1333;50.958;6.770;2023-04-03T14:30:24;33.00;18.70
2647;DHT22;1333;50.958;6.770;2023-04-03T14:32:51;33.30;19.10
2647;DHT22;1333;50.958;6.770;2023-04-03T14:35:18;33.60;19.30
2647;DHT22;1333;50.958;6.770;2023-04-03T14:37:44;34.00;19.50
2647;DHT22;1333;50.958;6.770;2023-04-03T14:40:16;33.80;18.40
2647;DHT22;1333;50.958;6.770;2023-04-03T14:42:42;33.50;18.70
2647;DHT22;1333;50.958;6.770;2023-04-03T14:45:10;33.50;19.00
2647;DHT22;1333;50.958;6.770;2023-04-03T14:47:46;32.80;18.00
2647;DHT22;1333;50.958;6.770;2023-04-03T14:50:19;32.20;18.80
2647;DHT22;1333;50.958;6.770;2023-04-03T14:52:47;31.30;18.70
2647;DHT22;1333;50.958;6.770;2023-04-03T14:55:15;30.30;19.00
2647;DHT22;1333;50.958;6.770;2023-04-03T14:57:41;29.70;19.50
2647;DHT22;1333;50.958;6.770;2023-04-03T15:00:12;29.50;20.30
2647;DHT22;1333;50.958;6.770;2023-04-03T15:02:38;28.80;20.10
2647;DHT22;1333;50.958;6.770;2023-04-03T15:05:07;27.50;19.90
2647;DHT22;1333;50.958;6.770;2023-04-03T15:07:36;25.60;20.30
2647;DHT22;1333;50.958;6.770;2023-04-03T15:12:43;21.70;22.30
2647;DHT22;1333;50.958;6.770;2023-04-03T15:15:09;20.10;23.30
2647;DHT22;1333;50.958;6.770;2023-04-03T15:17:35;18.90;24.20
2647;DHT22;1333;50.958;6.770;2023-04-03T15:20:03;17.80;24.90
2647;DHT22;1333;50.958;6.770;2023-04-03T15:22:28;16.90;25.70
2647;DHT22;1333;50.958;6.770;2023-04-03T15:24:54;16.20;26.50
2647;DHT22;1333;50.958;6.770;2023-04-03T15:27:19;15.60;27.00
2647;DHT22;1333;50.958;6.770;2023-04-03T15:29:45;15.10;27.60
2647;DHT22;1333;50.958;6.770;2023-04-03T15:32:11;14.50;28.40
2647;DHT22;1333;50.958;6.770;2023-04-03T15:34:38;14.20;28.60
2647;DHT22;1333;50.958;6.770;2023-04-03T15:37:04;13.80;28.90
2647;DHT22;1333;50.958;6.770;2023-04-03T15:39:30;13.40;29.30
2647;DHT22;1333;50.958;6.770;2023-04-03T15:41:55;13.20;29.70
2647;DHT22;1333;50.958;6.770;2023-04-03T15:44:25;13.10;30.20
2647;DHT22;1333;50.958;6.770;2023-04-03T15:46:50;13.00;31.00
2647;DHT22;1333;50.958;6.770;2023-04-03T15:49:17;12.80;30.30
2647;DHT22;1333;50.958;6.770;2023-04-03T15:51:43;12.70;30.20
2647;DHT22;1333;50.958;6.770;2023-04-03T15:54:08;12.50;30.30
2647;DHT22;1333;50.958;6.770;2023-04-03T15:56:34;12.30;31.00
2647;DHT22;1333;50.958;6.770;2023-04-03T15:58:59;12.20;31.70
2647;DHT22;1333;50.958;6.770;2023-04-03T16:01:25;12.20;32.10
2647;DHT22;1333;50.958;6.770;2023-04-03T16:03:50;12.10;32.30
2647;DHT22;1333;50.958;6.770;2023-04-03T16:06:17;12.10;32.60
2647;DHT22;1333;50.958;6.770;2023-04-03T16:08:44;12.00;32.50
2647;DHT22;1333;50.958;6.770;2023-04-03T16:11:11;11.90;32.50
2647;DHT22;1333;50.958;6.770;2023-04-03T16:13:37;11.80;32.80
2647;DHT22;1333;50.958;6.770;2023-04-03T16:16:03;11.80;33.10
2647;DHT22;1333;50.958;6.770;2023-04-03T16:18:30;11.70;33.20
2647;DHT22;1333;50.958;6.770;2023-04-03T16:20:55;11.60;33.40
2647;DHT22;1333;50.958;6.770;2023-04-03T16:23:22;11.50;33.60
2647;DHT22;1333;50.958;6.770;2023-04-03T16:25:48;11.40;33.60
2647;DHT22;1333;50.958;6.770;2023-04-03T16:28:15;11.30;33.60
2647;DHT22;1333;50.958;6.770;2023-04-03T16:30:43;11.30;33.90
2647;DHT22;1333;50.958;6.770;2023-04-03T16:33:10;11.20;34.20
2647;DHT22;1333;50.958;6.770;2023-04-03T16:35:36;11.20;34.60
2647;DHT22;1333;50.958;6.770;2023-04-03T16:38:02;11.20;34.90
2647;DHT22;1333;50.958;6.770;2023-04-03T16:40:28;11.00;35.20
2647;DHT22;1333;50.958;6.770;2023-04-03T16:42:53;11.00;35.30
2647;DHT22;1333;50.958;6.770;2023-04-03T16:45:19;11.00;35.20
2647;DHT22;1333;50.958;6.770;2023-04-03T16:47:44;11.00;35.50
2647;DHT22;1333;50.958;6.770;2023-04-03T16:50:10;10.80;35.70
2647;DHT22;1333;50.958;6.770;2023-04-03T16:52:36;10.80;36.20
2647;DHT22;1333;50.958;6.770;2023-04-03T16:55:01;10.70;36.30
2647;DHT22;1333;50.958;6.770;2023-04-03T16:57:27;10.70;36.10
2647;DHT22;1333;50.958;6.770;2023-04-03T16:59:53;10.60;35.90
2647;DHT22;1333;50.958;6.770;2023-04-03T17:02:20;10.40;35.90
2647;DHT22;1333;50.958;6.770;2023-04-03T17:04:46;10.30;36.10
2647;DHT22;1333;50.958;6.770;2023-04-03T17:07:11;10.20;36.00
2647;DHT22;1333;50.958;6.770;2023-04-03T17:09:37;10.00;36.10
2647;DHT22;1333;50.958;6.770;2023-04-03T17:12:03;10.00;36.50
2647;DHT22;1333;50.958;6.770;2023-04-03T17:14:29;9.80;37.80
2647;DHT22;1333;50.958;6.770;2023-04-03T17:16:54;9.70;38.30
2647;DHT22;1333;50.958;6.770;2023-04-03T17:19:20;9.70;38.60
2647;DHT22;1333;50.958;6.770;2023-04-03T17:21:46;9.60;38.60
2647;DHT22;1333;50.958;6.770;2023-04-03T17:24:12;9.60;38.50
2647;DHT22;1333;50.958;6.770;2023-04-03T17:26:39;9.50;38.50
2647;DHT22;1333;50.958;6.770;2023-04-03T17:29:06;9.30;38.60
2647;DHT22;1333;50.958;6.770;2023-04-03T17:31:31;9.20;39.00
2647;DHT22;1333;50.958;6.770;2023-04-03T17:33:57;9.20;39.40
2647;DHT22;1333;50.958;6.770;2023-04-03T17:36:27;9.10;39.50
2647;DHT22;1333;50.958;6.770;2023-04-03T17:38:52;8.90;39.70
2647;DHT22;1333;50.958;6.770;2023-04-03T17:41:18;8.90;39.80
2647;DHT22;1333;50.958;6.770;2023-04-03T17:43:43;8.80;39.90
2647;DHT22;1333;50.958;6.770;2023-04-03T17:46:10;8.70;40.10
2647;DHT22;1333;50.958;6.770;2023-04-03T17:48:37;8.70;40.20
2647;DHT22;1333;50.958;6.770;2023-04-03T17:51:15;8.60;40.50
2647;DHT22;1333;50.958;6.770;2023-04-03T17:53:42;8.50;40.70
2647;DHT22;1333;50.958;6.770;2023-04-03T17:56:11;8.30;41.00
2647;DHT22;1333;50.958;6.770;2023-04-03T17:58:37;8.20;41.20
2647;DHT22;1333;50.958;6.770;2023-04-03T18:01:14;8.10;41.30
2647;DHT22;1333;50.958;6.770;2023-04-03T18:03:40;8.10;41.60
2647;DHT22;1333;50.958;6.770;2023-04-03T18:06:09;8.00;41.90
2647;DHT22;1333;50.958;6.770;2023-04-03T18:08:39;7.90;42.30
2647;DHT22;1333;50.958;6.770;2023-04-03T18:11:05;7.80;42.60
2647;DHT22;1333;50.958;6.770;2023-04-03T18:13:31;7.70;43.30